sensor_id;sensor_type;location;lat;lon;timestamp;P1;durP1;ratioP1;P2;durP2;ratioP2
20908;SDS011;10614;53.198;6.570;2023-12-20T00:00:32;20.25;;;2.80;;
20908;SDS011;10614;53.198;6.570;2023-12-20T00:02:35;16.73;;;2.13;;
20908;SDS011;10614;53.198;6.570;2023-12-20T00:04:36;18.23;;;2.50;;
20908;SDS011;10614;53.198;6.570;2023-12-20T00:06:39;17.10;;;2.58;;
20908;SDS011;10614;53.198;6.570;2023-12-20T00:08:41;19.15;;;2.33;;
20908;SDS011;10614;53.198;6.570;2023-12-20T00:10:44;17.52;;;2.95;;
20908;SDS011;10614;53.198;6.570;2023-12-20T00:12:46;22.70;;;3.22;;
20908;SDS011;10614;53.198;6.570;2023-12-20T00:14:50;14.32;;;2.22;;
20908;SDS011;10614;53.198;6.570;2023-12-20T00:29:24;21.25;;;3.03;;
20908;SDS011;10614;53.198;6.570;2023-12-20T00:31:27;18.13;;;3.15;;
20908;SDS011;10614;53.198;6.570;2023-12-20T00:33:28;21.98;;;3.25;;
20908;SDS011;10614;53.198;6.570;2023-12-20T00:35:30;18.65;;;2.67;;
20908;SDS011;10614;53.198;6.570;2023-12-20T00:37:32;15.15;;;2.47;;
20908;SDS011;10614;53.198;6.570;2023-12-20T00:39:32;19.42;;;2.60;;
20908;SDS011;10614;53.198;6.570;2023-12-20T00:41:34;18.55;;;2.58;;
20908;SDS011;10614;53.198;6.570;2023-12-20T00:43:38;17.60;;;2.55;;
20908;SDS011;10614;53.198;6.570;2023-12-20T00:45:41;17.10;;;2.42;;
20908;SDS011;10614;53.198;6.570;2023-12-20T00:47:43;18.05;;;2.75;;
20908;SDS011;10614;53.198;6.570;2023-12-20T00:49:44;19.42;;;2.72;;
20908;SDS011;10614;53.198;6.570;2023-12-20T00:51:46;17.95;;;2.60;;
20908;SDS011;10614;53.198;6.570;2023-12-20T00:53:50;23.42;;;2.75;;
20908;SDS011;10614;53.198;6.570;2023-12-20T00:55:54;25.45;;;3.15;;
20908;SDS011;10614;53.198;6.570;2023-12-20T00:57:58;23.47;;;3.33;;
20908;SDS011;10614;53.198;6.570;2023-12-20T01:00:00;14.60;;;2.92;;
20908;SDS011;10614;53.198;6.570;2023-12-20T01:02:04;19.20;;;2.90;;
20908;SDS011;10614;53.198;6.570;2023-12-20T01:04:05;19.83;;;3.38;;
20908;SDS011;10614;53.198;6.570;2023-12-20T01:06:07;21.30;;;2.85;;
20908;SDS011;10614;53.198;6.570;2023-12-20T01:08:08;13.70;;;3.20;;
20908;SDS011;10614;53.198;6.570;2023-12-20T01:10:10;19.77;;;3.60;;
20908;SDS011;10614;53.198;6.570;2023-12-20T01:12:12;16.98;;;2.55;;
20908;SDS011;10614;53.198;6.570;2023-12-20T01:14:14;18.73;;;3.65;;
20908;SDS011;10614;53.198;6.570;2023-12-20T01:16:16;11.25;;;2.17;;
20908;SDS011;10614;53.198;6.570;2023-12-20T01:18:19;26.73;;;2.97;;
20908;SDS011;10614;53.198;6.570;2023-12-20T01:20:20;18.00;;;2.80;;
20908;SDS011;10614;53.198;6.570;2023-12-20T01:22:22;18.33;;;2.95;;
20908;SDS011;10614;53.198;6.570;2023-12-20T01:24:24;25.58;;;3.47;;
20908;SDS011;10614;53.198;6.570;2023-12-20T02:36:16;22.13;;;3.05;;
20908;SDS011;10614;53.198;6.570;2023-12-20T02:38:17;28.25;;;4.32;;
20908;SDS011;10614;53.198;6.570;2023-12-20T02:40:19;27.83;;;5.05;;
20908;SDS011;10614;53.198;6.570;2023-12-20T02:42:21;32.70;;;4.20;;
20908;SDS011;10614;53.198;6.570;2023-12-20T02:44:23;22.15;;;4.40;;
20908;SDS011;10614;53.198;6.570;2023-12-20T02:46:24;27.88;;;3.70;;
20908;SDS011;10614;53.198;6.570;2023-12-20T02:48:26;35.65;;;5.45;;
20908;SDS011;10614;53.198;6.570;2023-12-20T02:50:28;30.33;;;4.18;;
20908;SDS011;10614;53.198;6.570;2023-12-20T02:52:31;35.22;;;5.13;;
20908;SDS011;10614;53.198;6.570;2023-12-20T02:54:33;30.77;;;4.22;;
20908;SDS011;10614;53.198;6.570;2023-12-20T02:56:35;18.80;;;3.60;;
20908;SDS011;10614;53.198;6.570;2023-12-20T02:58:36;38.72;;;5.95;;
20908;SDS011;10614;53.198;6.570;2023-12-20T03:00:38;34.80;;;5.10;;
20908;SDS011;10614;53.198;6.570;2023-12-20T03:02:40;32.13;;;5.28;;
20908;SDS011;10614;53.198;6.570;2023-12-20T03:04:41;24.73;;;4.18;;
20908;SDS011;10614;53.198;6.570;2023-12-20T03:06:43;36.70;;;4.97;;
20908;SDS011;10614;53.198;6.570;2023-12-20T03:08:46;32.25;;;4.15;;
20908;SDS011;10614;53.198;6.570;2023-12-20T03:10:48;33.25;;;4.78;;
20908;SDS011;10614;53.198;6.570;2023-12-20T03:12:50;22.75;;;4.57;;
20908;SDS011;10614;53.198;6.570;2023-12-20T03:14:51;32.63;;;5.13;;
20908;SDS011;10614;53.198;6.570;2023-12-20T03:16:52;29.38;;;4.93;;
20908;SDS011;10614;53.198;6.570;2023-12-20T03:18:54;39.20;;;5.65;;
20908;SDS011;10614;53.198;6.570;2023-12-20T03:20:55;32.45;;;5.25;;
20908;SDS011;10614;53.198;6.570;2023-12-20T03:22:57;35.38;;;4.88;;
20908;SDS011;10614;53.198;6.570;2023-12-20T03:25:00;45.47;;;5.03;;
20908;SDS011;10614;53.198;6.570;2023-12-20T03:27:03;37.42;;;5.85;;
20908;SDS011;10614;53.198;6.570;2023-12-20T03:29:05;30.27;;;4.65;;
20908;SDS011;10614;53.198;6.570;2023-12-20T03:31:06;35.63;;;5.15;;
20908;SDS011;10614;53.198;6.570;2023-12-20T03:33:08;28.13;;;4.18;;
20908;SDS011;10614;53.198;6.570;2023-12-20T03:35:10;28.23;;;3.70;;
20908;SDS011;10614;53.198;6.570;2023-12-20T03:37:11;30.13;;;5.18;;
20908;SDS011;10614;53.198;6.570;2023-12-20T03:39:12;27.45;;;4.30;;
20908;SDS011;10614;53.198;6.570;2023-12-20T03:41:16;28.83;;;4.60;;
20908;SDS011;10614;53.198;6.570;2023-12-20T03:43:17;31.92;;;4.25;;
20908;SDS011;10614;53.198;6.570;2023-12-20T03:45:20;39.75;;;5.35;;
20908;SDS011;10614;53.198;6.570;2023-12-20T03:56:05;28.27;;;4.82;;
20908;SDS011;10614;53.198;6.570;2023-12-20T03:58:11;35.88;;;5.40;;
20908;SDS011;10614;53.198;6.570;2023-12-20T04:00:13;35.15;;;4.90;;
20908;SDS011;10614;53.198;6.570;2023-12-20T04:02:19;34.33;;;5.53;;
20908;SDS011;10614;53.198;6.570;2023-12-20T04:04:21;29.85;;;4.82;;
20908;SDS011;10614;53.198;6.570;2023-12-20T04:06:23;42.17;;;5.97;;
20908;SDS011;10614;53.198;6.570;2023-12-20T04:08:25;32.55;;;5.45;;
20908;SDS011;10614;53.198;6.570;2023-12-20T04:10:28;36.88;;;3.97;;
20908;SDS011;10614;53.198;6.570;2023-12-20T04:12:32;30.70;;;4.97;;
20908;SDS011;10614;53.198;6.570;2023-12-20T04:14:35;27.45;;;5.20;;
20908;SDS011;10614;53.198;6.570;2023-12-20T04:16:37;31.25;;;4.85;;
20908;SDS011;10614;53.198;6.570;2023-12-20T04:18:40;38.05;;;5.55;;
20908;SDS011;10614;53.198;6.570;2023-12-20T04:20:42;41.42;;;5.70;;
20908;SDS011;10614;53.198;6.570;2023-12-20T04:22:46;36.17;;;5.00;;
20908;SDS011;10614;53.198;6.570;2023-12-20T04:24:48;27.02;;;5.00;;
20908;SDS011;10614;53.198;6.570;2023-12-20T04:26:48;35.40;;;5.43;;
20908;SDS011;10614;53.198;6.570;2023-12-20T04:28:54;33.40;;;5.43;;
20908;SDS011;10614;53.198;6.570;2023-12-20T04:30:56;29.50;;;5.10;;
20908;SDS011;10614;53.198;6.570;2023-12-20T04:33:00;29.60;;;4.65;;
20908;SDS011;10614;53.198;6.570;2023-12-20T04:35:01;39.47;;;4.78;;
20908;SDS011;10614;53.198;6.570;2023-12-20T04:37:05;29.98;;;4.00;;
20908;SDS011;10614;53.198;6.570;2023-12-20T04:39:11;39.47;;;5.53;;
20908;SDS011;10614;53.198;6.570;2023-12-20T04:41:15;31.70;;;4.45;;
20908;SDS011;10614;53.198;6.570;2023-12-20T04:43:19;39.95;;;4.45;;
20908;SDS011;10614;53.198;6.570;2023-12-20T04:45:21;25.17;;;4.53;;
20908;SDS011;10614;53.198;6.570;2023-12-20T04:47:29;30.33;;;4.47;;
20908;SDS011;10614;53.198;6.570;2023-12-20T04:49:32;31.77;;;4.53;;
20908;SDS011;10614;53.198;6.570;2023-12-20T04:51:37;30.42;;;4.82;;
20908;SDS011;10614;53.198;6.570;2023-12-20T04:53:42;30.92;;;5.15;;
20908;SDS011;10614;53.198;6.570;2023-12-20T04:55:47;25.70;;;4.47;;
20908;SDS011;10614;53.198;6.570;2023-12-20T04:57:50;32.60;;;5.13;;
20908;SDS011;10614;53.198;6.570;2023-12-20T04:59:54;25.90;;;4.45;;
20908;SDS011;10614;53.198;6.570;2023-12-20T05:01:59;34.20;;;4.25;;
20908;SDS011;10614;53.198;6.570;2023-12-20T05:04:02;36.25;;;4.82;;
20908;SDS011;10614;53.198;6.570;2023-12-20T05:06:07;32.97;;;5.28;;
20908;SDS011;10614;53.198;6.570;2023-12-20T05:08:10;33.80;;;3.90;;
20908;SDS011;10614;53.198;6.570;2023-12-20T05:10:11;32.90;;;4.30;;
20908;SDS011;10614;53.198;6.570;2023-12-20T05:12:17;28.05;;;4.38;;
20908;SDS011;10614;53.198;6.570;2023-12-20T05:14:18;37.00;;;6.45;;
20908;SDS011;10614;53.198;6.570;2023-12-20T05:16:21;28.58;;;4.95;;
20908;SDS011;10614;53.198;6.570;2023-12-20T05:18:23;29.40;;;4.63;;
20908;SDS011;10614;53.198;6.570;2023-12-20T05:20:28;36.83;;;5.43;;
20908;SDS011;10614;53.198;6.570;2023-12-20T05:22:32;33.60;;;4.68;;
20908;SDS011;10614;53.198;6.570;2023-12-20T05:24:36;27.95;;;4.72;;
20908;SDS011;10614;53.198;6.570;2023-12-20T05:26:39;30.33;;;5.13;;
20908;SDS011;10614;53.198;6.570;2023-12-20T05:28:42;32.95;;;5.75;;
20908;SDS011;10614;53.198;6.570;2023-12-20T05:30:47;21.20;;;4.18;;
20908;SDS011;10614;53.198;6.570;2023-12-20T05:33:03;39.70;;;5.63;;
20908;SDS011;10614;53.198;6.570;2023-12-20T05:35:06;32.75;;;5.15;;
20908;SDS011;10614;53.198;6.570;2023-12-20T05:37:10;33.05;;;4.55;;
20908;SDS011;10614;53.198;6.570;2023-12-20T05:39:11;35.88;;;5.38;;
20908;SDS011;10614;53.198;6.570;2023-12-20T05:41:14;30.50;;;5.13;;
20908;SDS011;10614;53.198;6.570;2023-12-20T05:43:18;30.63;;;5.13;;
20908;SDS011;10614;53.198;6.570;2023-12-20T05:45:27;26.23;;;4.50;;
20908;SDS011;10614;53.198;6.570;2023-12-20T05:47:29;31.92;;;4.70;;
20908;SDS011;10614;53.198;6.570;2023-12-20T05:49:32;29.73;;;4.80;;
20908;SDS011;10614;53.198;6.570;2023-12-20T05:51:35;33.40;;;5.00;;
20908;SDS011;10614;53.198;6.570;2023-12-20T05:53:40;24.90;;;4.95;;
20908;SDS011;10614;53.198;6.570;2023-12-20T05:55:43;38.28;;;5.05;;
20908;SDS011;10614;53.198;6.570;2023-12-20T05:57:45;29.17;;;5.10;;
20908;SDS011;10614;53.198;6.570;2023-12-20T05:59:47;41.72;;;4.70;;
20908;SDS011;10614;53.198;6.570;2023-12-20T06:01:51;37.85;;;4.97;;
20908;SDS011;10614;53.198;6.570;2023-12-20T06:03:53;31.40;;;5.80;;
20908;SDS011;10614;53.198;6.570;2023-12-20T06:08:07;31.30;;;4.85;;
20908;SDS011;10614;53.198;6.570;2023-12-20T06:10:11;29.80;;;5.13;;
20908;SDS011;10614;53.198;6.570;2023-12-20T06:12:16;40.65;;;5.53;;
20908;SDS011;10614;53.198;6.570;2023-12-20T06:14:17;29.52;;;4.65;;
20908;SDS011;10614;53.198;6.570;2023-12-20T06:16:23;32.80;;;5.32;;
20908;SDS011;10614;53.198;6.570;2023-12-20T06:18:25;25.30;;;4.47;;
20908;SDS011;10614;53.198;6.570;2023-12-20T06:20:27;31.80;;;5.07;;
20908;SDS011;10614;53.198;6.570;2023-12-20T06:22:29;28.77;;;4.38;;
20908;SDS011;10614;53.198;6.570;2023-12-20T06:24:30;32.03;;;4.57;;
20908;SDS011;10614;53.198;6.570;2023-12-20T06:26:35;28.75;;;5.78;;
20908;SDS011;10614;53.198;6.570;2023-12-20T06:28:37;30.75;;;4.55;;
20908;SDS011;10614;53.198;6.570;2023-12-20T06:30:38;28.10;;;4.18;;
20908;SDS011;10614;53.198;6.570;2023-12-20T06:32:40;41.05;;;5.03;;
20908;SDS011;10614;53.198;6.570;2023-12-20T06:34:42;32.08;;;5.22;;
20908;SDS011;10614;53.198;6.570;2023-12-20T06:36:44;33.88;;;4.28;;
20908;SDS011;10614;53.198;6.570;2023-12-20T06:38:45;41.25;;;5.55;;
20908;SDS011;10614;53.198;6.570;2023-12-20T06:40:47;25.85;;;4.25;;
20908;SDS011;10614;53.198;6.570;2023-12-20T06:42:50;25.90;;;4.57;;
20908;SDS011;10614;53.198;6.570;2023-12-20T06:44:52;32.00;;;5.25;;
20908;SDS011;10614;53.198;6.570;2023-12-20T06:46:54;34.15;;;4.95;;
20908;SDS011;10614;53.198;6.570;2023-12-20T06:48:56;32.22;;;5.43;;
20908;SDS011;10614;53.198;6.570;2023-12-20T06:50:59;29.48;;;4.60;;
20908;SDS011;10614;53.198;6.570;2023-12-20T06:53:02;26.33;;;4.35;;
20908;SDS011;10614;53.198;6.570;2023-12-20T06:57:08;27.30;;;4.70;;
20908;SDS011;10614;53.198;6.570;2023-12-20T06:59:12;29.20;;;4.93;;
20908;SDS011;10614;53.198;6.570;2023-12-20T07:01:14;25.42;;;4.07;;
20908;SDS011;10614;53.198;6.570;2023-12-20T07:03:17;27.35;;;5.95;;
20908;SDS011;10614;53.198;6.570;2023-12-20T07:05:19;30.55;;;5.32;;
20908;SDS011;10614;53.198;6.570;2023-12-20T07:07:21;32.90;;;4.72;;
20908;SDS011;10614;53.198;6.570;2023-12-20T07:09:24;21.95;;;4.53;;
20908;SDS011;10614;53.198;6.570;2023-12-20T07:11:26;32.97;;;4.78;;
20908;SDS011;10614;53.198;6.570;2023-12-20T07:13:27;32.60;;;4.30;;
20908;SDS011;10614;53.198;6.570;2023-12-20T07:17:40;32.20;;;5.18;;
20908;SDS011;10614;53.198;6.570;2023-12-20T07:19:42;31.17;;;4.95;;
20908;SDS011;10614;53.198;6.570;2023-12-20T07:21:44;32.47;;;4.80;;
20908;SDS011;10614;53.198;6.570;2023-12-20T07:23:46;33.38;;;5.28;;
20908;SDS011;10614;53.198;6.570;2023-12-20T07:25:48;30.30;;;4.97;;
20908;SDS011;10614;53.198;6.570;2023-12-20T07:27:51;29.20;;;4.95;;
20908;SDS011;10614;53.198;6.570;2023-12-20T07:30:02;32.78;;;4.72;;
20908;SDS011;10614;53.198;6.570;2023-12-20T07:32:15;20.67;;;4.32;;
20908;SDS011;10614;53.198;6.570;2023-12-20T07:34:18;34.20;;;6.35;;
20908;SDS011;10614;53.198;6.570;2023-12-20T07:36:20;26.70;;;4.57;;
20908;SDS011;10614;53.198;6.570;2023-12-20T07:38:22;25.98;;;5.35;;
20908;SDS011;10614;53.198;6.570;2023-12-20T07:40:24;30.42;;;5.05;;
20908;SDS011;10614;53.198;6.570;2023-12-20T07:44:36;37.75;;;5.82;;
20908;SDS011;10614;53.198;6.570;2023-12-20T07:46:38;32.35;;;5.03;;
20908;SDS011;10614;53.198;6.570;2023-12-20T07:48:44;36.88;;;5.97;;
20908;SDS011;10614;53.198;6.570;2023-12-20T07:53:46;31.42;;;4.63;;
20908;SDS011;10614;53.198;6.570;2023-12-20T07:55:48;26.35;;;4.28;;
20908;SDS011;10614;53.198;6.570;2023-12-20T07:57:49;25.52;;;4.55;;
20908;SDS011;10614;53.198;6.570;2023-12-20T07:59:51;29.95;;;5.70;;
20908;SDS011;10614;53.198;6.570;2023-12-20T08:01:53;31.23;;;4.25;;
20908;SDS011;10614;53.198;6.570;2023-12-20T08:03:55;28.48;;;4.47;;
20908;SDS011;10614;53.198;6.570;2023-12-20T08:05:58;19.48;;;4.38;;
20908;SDS011;10614;53.198;6.570;2023-12-20T08:16:43;24.13;;;4.45;;
20908;SDS011;10614;53.198;6.570;2023-12-20T08:18:48;27.52;;;5.57;;
20908;SDS011;10614;53.198;6.570;2023-12-20T08:20:51;31.30;;;4.57;;
20908;SDS011;10614;53.198;6.570;2023-12-20T08:33:36;18.45;;;3.40;;
20908;SDS011;10614;53.198;6.570;2023-12-20T08:35:44;22.10;;;3.78;;
20908;SDS011;10614;53.198;6.570;2023-12-20T08:37:45;25.00;;;4.25;;
20908;SDS011;10614;53.198;6.570;2023-12-20T08:39:47;24.52;;;4.55;;
20908;SDS011;10614;53.198;6.570;2023-12-20T08:41:48;24.08;;;3.72;;
20908;SDS011;10614;53.198;6.570;2023-12-20T08:43:50;23.13;;;3.65;;
20908;SDS011;10614;53.198;6.570;2023-12-20T08:45:52;21.08;;;2.97;;
20908;SDS011;10614;53.198;6.570;2023-12-20T08:47:54;10.38;;;1.90;;
20908;SDS011;10614;53.198;6.570;2023-12-20T08:49:57;5.78;;;1.48;;
20908;SDS011;10614;53.198;6.570;2023-12-20T08:52:00;8.93;;;1.50;;
20908;SDS011;10614;53.198;6.570;2023-12-20T08:54:01;13.73;;;1.30;;
20908;SDS011;10614;53.198;6.570;2023-12-20T08:56:07;5.25;;;1.00;;
20908;SDS011;10614;53.198;6.570;2023-12-20T08:58:09;11.70;;;1.60;;
20908;SDS011;10614;53.198;6.570;2023-12-20T09:00:11;9.80;;;1.58;;
20908;SDS011;10614;53.198;6.570;2023-12-20T09:02:13;7.72;;;0.90;;
20908;SDS011;10614;53.198;6.570;2023-12-20T09:04:15;9.48;;;1.35;;
20908;SDS011;10614;53.198;6.570;2023-12-20T09:06:18;12.82;;;1.58;;
20908;SDS011;10614;53.198;6.570;2023-12-20T09:08:19;15.80;;;1.80;;
20908;SDS011;10614;53.198;6.570;2023-12-20T09:10:21;13.77;;;1.67;;
20908;SDS011;10614;53.198;6.570;2023-12-20T09:12:23;13.52;;;2.17;;
20908;SDS011;10614;53.198;6.570;2023-12-20T09:14:26;17.60;;;1.80;;
20908;SDS011;10614;53.198;6.570;2023-12-20T09:16:28;19.08;;;2.40;;
20908;SDS011;10614;53.198;6.570;2023-12-20T09:18:29;19.48;;;2.22;;
20908;SDS011;10614;53.198;6.570;2023-12-20T09:20:31;24.75;;;2.10;;
20908;SDS011;10614;53.198;6.570;2023-12-20T09:22:35;16.80;;;1.92;;
20908;SDS011;10614;53.198;6.570;2023-12-20T09:24:38;7.45;;;1.80;;
20908;SDS011;10614;53.198;6.570;2023-12-20T09:26:40;14.18;;;2.05;;
20908;SDS011;10614;53.198;6.570;2023-12-20T09:28:43;13.25;;;2.70;;
20908;SDS011;10614;53.198;6.570;2023-12-20T09:30:45;11.68;;;3.25;;
20908;SDS011;10614;53.198;6.570;2023-12-20T09:32:46;13.35;;;2.35;;
20908;SDS011;10614;53.198;6.570;2023-12-20T09:34:48;9.98;;;1.00;;
20908;SDS011;10614;53.198;6.570;2023-12-20T09:47:40;6.47;;;1.40;;
20908;SDS011;10614;53.198;6.570;2023-12-20T09:49:43;11.18;;;3.03;;
20908;SDS011;10614;53.198;6.570;2023-12-20T09:51:47;15.02;;;1.50;;
20908;SDS011;10614;53.198;6.570;2023-12-20T09:53:53;10.48;;;1.48;;
20908;SDS011;10614;53.198;6.570;2023-12-20T09:55:58;6.95;;;1.23;;
20908;SDS011;10614;53.198;6.570;2023-12-20T09:58:03;13.30;;;1.63;;
20908;SDS011;10614;53.198;6.570;2023-12-20T10:00:07;9.43;;;1.50;;
20908;SDS011;10614;53.198;6.570;2023-12-20T10:02:12;10.43;;;1.58;;
20908;SDS011;10614;53.198;6.570;2023-12-20T10:04:17;20.17;;;2.63;;
20908;SDS011;10614;53.198;6.570;2023-12-20T10:08:22;11.80;;;1.30;;
20908;SDS011;10614;53.198;6.570;2023-12-20T10:10:26;9.93;;;1.55;;
20908;SDS011;10614;53.198;6.570;2023-12-20T10:12:28;17.25;;;1.75;;
20908;SDS011;10614;53.198;6.570;2023-12-20T10:14:32;10.98;;;1.50;;
20908;SDS011;10614;53.198;6.570;2023-12-20T10:16:34;16.02;;;2.20;;
20908;SDS011;10614;53.198;6.570;2023-12-20T10:18:36;14.57;;;1.73;;
20908;SDS011;10614;53.198;6.570;2023-12-20T10:20:41;15.65;;;1.63;;
20908;SDS011;10614;53.198;6.570;2023-12-20T10:22:44;12.35;;;1.60;;
20908;SDS011;10614;53.198;6.570;2023-12-20T10:27:00;9.75;;;1.80;;
20908;SDS011;10614;53.198;6.570;2023-12-20T10:29:04;13.13;;;1.75;;
20908;SDS011;10614;53.198;6.570;2023-12-20T10:31:07;13.13;;;1.70;;
20908;SDS011;10614;53.198;6.570;2023-12-20T10:33:09;15.15;;;1.73;;
20908;SDS011;10614;53.198;6.570;2023-12-20T10:35:10;12.75;;;1.92;;
20908;SDS011;10614;53.198;6.570;2023-12-20T10:37:16;19.02;;;2.60;;
20908;SDS011;10614;53.198;6.570;2023-12-20T10:39:17;16.63;;;2.60;;
20908;SDS011;10614;53.198;6.570;2023-12-20T10:41:22;15.13;;;1.90;;
20908;SDS011;10614;53.198;6.570;2023-12-20T10:43:28;10.68;;;1.95;;
20908;SDS011;10614;53.198;6.570;2023-12-20T10:45:31;11.55;;;1.83;;
20908;SDS011;10614;53.198;6.570;2023-12-20T10:47:35;20.75;;;2.83;;
20908;SDS011;10614;53.198;6.570;2023-12-20T10:49:39;13.57;;;2.17;;
20908;SDS011;10614;53.198;6.570;2023-12-20T10:51:42;20.00;;;2.45;;
20908;SDS011;10614;53.198;6.570;2023-12-20T10:53:47;22.48;;;2.63;;
20908;SDS011;10614;53.198;6.570;2023-12-20T10:55:55;23.57;;;2.93;;
20908;SDS011;10614;53.198;6.570;2023-12-20T11:24:28;16.77;;;2.10;;
20908;SDS011;10614;53.198;6.570;2023-12-20T11:30:54;8.60;;;2.00;;
20908;SDS011;10614;53.198;6.570;2023-12-20T11:56:52;15.88;;;2.47;;
20908;SDS011;10614;53.198;6.570;2023-12-20T11:58:54;27.35;;;3.25;;
20908;SDS011;10614;53.198;6.570;2023-12-20T12:00:57;21.15;;;2.60;;
20908;SDS011;10614;53.198;6.570;2023-12-20T12:02:59;16.88;;;3.15;;
20908;SDS011;10614;53.198;6.570;2023-12-20T12:05:03;15.02;;;2.38;;
20908;SDS011;10614;53.198;6.570;2023-12-20T12:48:21;21.55;;;3.60;;
20908;SDS011;10614;53.198;6.570;2023-12-20T12:50:23;16.35;;;2.70;;
20908;SDS011;10614;53.198;6.570;2023-12-20T12:52:25;17.02;;;2.28;;
20908;SDS011;10614;53.198;6.570;2023-12-20T12:54:27;14.82;;;2.42;;
20908;SDS011;10614;53.198;6.570;2023-12-20T12:56:29;10.60;;;1.83;;
20908;SDS011;10614;53.198;6.570;2023-12-20T12:58:31;23.17;;;2.90;;
20908;SDS011;10614;53.198;6.570;2023-12-20T13:00:34;14.75;;;2.45;;
20908;SDS011;10614;53.198;6.570;2023-12-20T13:02:37;19.40;;;3.03;;
20908;SDS011;10614;53.198;6.570;2023-12-20T13:04:43;13.20;;;1.83;;
20908;SDS011;10614;53.198;6.570;2023-12-20T13:06:49;19.33;;;2.58;;
20908;SDS011;10614;53.198;6.570;2023-12-20T13:08:50;11.77;;;2.40;;
20908;SDS011;10614;53.198;6.570;2023-12-20T13:10:52;15.60;;;2.92;;
20908;SDS011;10614;53.198;6.570;2023-12-20T13:12:54;13.50;;;2.70;;
20908;SDS011;10614;53.198;6.570;2023-12-20T13:14:54;13.85;;;2.28;;
20908;SDS011;10614;53.198;6.570;2023-12-20T13:19:34;14.82;;;4.32;;
20908;SDS011;10614;53.198;6.570;2023-12-20T13:21:37;19.23;;;2.78;;
20908;SDS011;10614;53.198;6.570;2023-12-20T13:23:40;21.40;;;3.17;;
20908;SDS011;10614;53.198;6.570;2023-12-20T13:25:47;14.57;;;3.22;;
20908;SDS011;10614;53.198;6.570;2023-12-20T13:27:48;24.15;;;2.90;;
20908;SDS011;10614;53.198;6.570;2023-12-20T13:29:49;16.42;;;2.40;;
20908;SDS011;10614;53.198;6.570;2023-12-20T13:31:51;19.85;;;2.75;;
20908;SDS011;10614;53.198;6.570;2023-12-20T13:33:53;20.17;;;3.15;;
20908;SDS011;10614;53.198;6.570;2023-12-20T13:35:54;12.55;;;2.40;;
20908;SDS011;10614;53.198;6.570;2023-12-20T13:38:00;20.02;;;2.15;;
20908;SDS011;10614;53.198;6.570;2023-12-20T13:40:02;14.27;;;2.08;;
20908;SDS011;10614;53.198;6.570;2023-12-20T13:42:04;17.58;;;2.60;;
20908;SDS011;10614;53.198;6.570;2023-12-20T13:44:06;17.13;;;2.47;;
20908;SDS011;10614;53.198;6.570;2023-12-20T13:46:08;24.10;;;2.38;;
20908;SDS011;10614;53.198;6.570;2023-12-20T13:48:11;15.75;;;2.53;;
20908;SDS011;10614;53.198;6.570;2023-12-20T13:50:12;16.15;;;2.00;;
20908;SDS011;10614;53.198;6.570;2023-12-20T13:52:13;14.15;;;2.42;;
20908;SDS011;10614;53.198;6.570;2023-12-20T13:54:18;16.67;;;2.25;;
20908;SDS011;10614;53.198;6.570;2023-12-20T13:56:22;18.65;;;3.00;;
20908;SDS011;10614;53.198;6.570;2023-12-20T13:58:24;17.85;;;2.50;;
20908;SDS011;10614;53.198;6.570;2023-12-20T14:00:25;12.48;;;2.47;;
20908;SDS011;10614;53.198;6.570;2023-12-20T14:02:26;13.43;;;1.75;;
20908;SDS011;10614;53.198;6.570;2023-12-20T14:04:28;14.88;;;1.95;;
20908;SDS011;10614;53.198;6.570;2023-12-20T14:06:31;16.10;;;2.22;;
20908;SDS011;10614;53.198;6.570;2023-12-20T14:08:33;10.18;;;1.90;;
20908;SDS011;10614;53.198;6.570;2023-12-20T14:10:35;11.48;;;2.08;;
20908;SDS011;10614;53.198;6.570;2023-12-20T14:12:38;8.48;;;1.40;;
20908;SDS011;10614;53.198;6.570;2023-12-20T14:14:39;11.07;;;1.52;;
20908;SDS011;10614;53.198;6.570;2023-12-20T14:16:41;10.35;;;1.73;;
20908;SDS011;10614;53.198;6.570;2023-12-20T14:18:45;15.23;;;2.05;;
20908;SDS011;10614;53.198;6.570;2023-12-20T14:20:47;11.30;;;1.88;;
20908;SDS011;10614;53.198;6.570;2023-12-20T14:22:50;17.30;;;2.07;;
20908;SDS011;10614;53.198;6.570;2023-12-20T14:24:52;13.82;;;1.92;;
20908;SDS011;10614;53.198;6.570;2023-12-20T14:26:56;12.77;;;1.67;;
20908;SDS011;10614;53.198;6.570;2023-12-20T14:28:58;12.55;;;1.88;;
20908;SDS011;10614;53.198;6.570;2023-12-20T14:31:00;12.23;;;1.73;;
20908;SDS011;10614;53.198;6.570;2023-12-20T14:33:02;14.20;;;2.95;;
20908;SDS011;10614;53.198;6.570;2023-12-20T15:25:48;11.80;;;1.77;;
20908;SDS011;10614;53.198;6.570;2023-12-20T15:27:51;11.65;;;1.90;;
20908;SDS011;10614;53.198;6.570;2023-12-20T15:30:00;12.98;;;2.30;;
20908;SDS011;10614;53.198;6.570;2023-12-20T15:32:00;16.55;;;2.58;;
20908;SDS011;10614;53.198;6.570;2023-12-20T15:34:03;10.52;;;2.35;;
20908;SDS011;10614;53.198;6.570;2023-12-20T15:36:06;15.20;;;2.58;;
20908;SDS011;10614;53.198;6.570;2023-12-20T15:38:08;11.52;;;2.10;;
20908;SDS011;10614;53.198;6.570;2023-12-20T15:40:09;8.35;;;1.98;;
20908;SDS011;10614;53.198;6.570;2023-12-20T15:42:16;12.25;;;2.42;;
20908;SDS011;10614;53.198;6.570;2023-12-20T15:44:17;13.60;;;2.47;;
20908;SDS011;10614;53.198;6.570;2023-12-20T15:48:29;15.45;;;2.67;;
20908;SDS011;10614;53.198;6.570;2023-12-20T15:50:31;19.58;;;3.05;;
20908;SDS011;10614;53.198;6.570;2023-12-20T15:52:34;15.98;;;2.65;;
20908;SDS011;10614;53.198;6.570;2023-12-20T16:04:21;17.02;;;2.92;;
20908;SDS011;10614;53.198;6.570;2023-12-20T16:06:23;16.38;;;3.08;;
20908;SDS011;10614;53.198;6.570;2023-12-20T16:08:25;25.33;;;3.00;;
20908;SDS011;10614;53.198;6.570;2023-12-20T16:10:26;33.90;;;3.88;;
20908;SDS011;10614;53.198;6.570;2023-12-20T16:12:44;23.83;;;3.85;;
20908;SDS011;10614;53.198;6.570;2023-12-20T16:17:11;40.58;;;4.35;;
20908;SDS011;10614;53.198;6.570;2023-12-20T16:19:13;26.17;;;3.78;;
20908;SDS011;10614;53.198;6.570;2023-12-20T16:21:17;26.02;;;3.97;;
20908;SDS011;10614;53.198;6.570;2023-12-20T16:23:19;25.88;;;3.63;;
20908;SDS011;10614;53.198;6.570;2023-12-20T16:25:29;26.63;;;4.68;;
20908;SDS011;10614;53.198;6.570;2023-12-20T16:28:00;26.98;;;3.38;;
20908;SDS011;10614;53.198;6.570;2023-12-20T16:30:16;28.38;;;5.00;;
20908;SDS011;10614;53.198;6.570;2023-12-20T16:32:34;28.98;;;4.00;;
20908;SDS011;10614;53.198;6.570;2023-12-20T16:34:50;21.35;;;3.60;;
20908;SDS011;10614;53.198;6.570;2023-12-20T16:36:55;13.55;;;3.35;;
20908;SDS011;10614;53.198;6.570;2023-12-20T16:38:58;21.85;;;3.45;;
20908;SDS011;10614;53.198;6.570;2023-12-20T16:40:59;24.80;;;3.63;;
20908;SDS011;10614;53.198;6.570;2023-12-20T16:43:02;23.00;;;3.22;;
20908;SDS011;10614;53.198;6.570;2023-12-20T16:45:05;20.53;;;3.60;;
20908;SDS011;10614;53.198;6.570;2023-12-20T16:47:06;24.75;;;3.80;;
20908;SDS011;10614;53.198;6.570;2023-12-20T16:49:08;19.30;;;3.63;;
20908;SDS011;10614;53.198;6.570;2023-12-20T16:51:11;30.27;;;4.57;;
20908;SDS011;10614;53.198;6.570;2023-12-20T16:53:14;25.52;;;4.68;;
20908;SDS011;10614;53.198;6.570;2023-12-20T16:55:16;20.58;;;3.53;;
20908;SDS011;10614;53.198;6.570;2023-12-20T16:57:18;18.73;;;3.25;;
20908;SDS011;10614;53.198;6.570;2023-12-20T16:59:21;23.23;;;4.03;;
20908;SDS011;10614;53.198;6.570;2023-12-20T17:01:23;22.05;;;3.92;;
20908;SDS011;10614;53.198;6.570;2023-12-20T17:03:26;18.15;;;3.70;;
20908;SDS011;10614;53.198;6.570;2023-12-20T17:05:27;24.75;;;3.78;;
20908;SDS011;10614;53.198;6.570;2023-12-20T17:07:29;26.00;;;4.25;;
20908;SDS011;10614;53.198;6.570;2023-12-20T17:09:31;23.90;;;4.20;;
20908;SDS011;10614;53.198;6.570;2023-12-20T17:11:33;17.42;;;3.80;;